sensor_id;sensor_type;location;lat;lon;timestamp;P1;durP1;ratioP1;P2;durP2;ratioP2
30147;SDS011;16960;49.404;8.248;2022-10-16T00:02:17;0.60;;;0.50;;
30147;SDS011;16960;49.404;8.248;2022-10-16T00:04:44;1.47;;;0.40;;
30147;SDS011;16960;49.404;8.248;2022-10-16T00:07:12;2.77;;;0.87;;
30147;SDS011;16960;49.404;8.248;2022-10-16T00:09:39;0.53;;;0.53;;
30147;SDS011;16960;49.404;8.248;2022-10-16T00:12:06;0.80;;;0.80;;
30147;SDS011;16960;49.404;8.248;2022-10-16T00:14:33;0.50;;;0.40;;
30147;SDS011;16960;49.404;8.248;2022-10-16T00:17:00;1.87;;;0.60;;
30147;SDS011;16960;49.404;8.248;2022-10-16T00:19:27;0.77;;;0.60;;
30147;SDS011;16960;49.404;8.248;2022-10-16T00:21:54;0.93;;;0.70;;
30147;SDS011;16960;49.404;8.248;2022-10-16T00:24:22;1.00;;;0.50;;
30147;SDS011;16960;49.404;8.248;2022-10-16T00:26:49;0.80;;;0.50;;
30147;SDS011;16960;49.404;8.248;2022-10-16T00:29:16;0.60;;;0.50;;
30147;SDS011;16960;49.404;8.248;2022-10-16T00:31:43;1.00;;;0.60;;
30147;SDS011;16960;49.404;8.248;2022-10-16T00:34:10;1.00;;;0.70;;
30147;SDS011;16960;49.404;8.248;2022-10-16T00:36:37;0.97;;;0.87;;
30147;SDS011;16960;49.404;8.248;2022-10-16T00:39:04;1.00;;;0.90;;
30147;SDS011;16960;49.404;8.248;2022-10-16T00:41:33;1.03;;;0.67;;
30147;SDS011;16960;49.404;8.248;2022-10-16T00:44:00;2.40;;;0.43;;
30147;SDS011;16960;49.404;8.248;2022-10-16T00:46:31;0.60;;;0.50;;
30147;SDS011;16960;49.404;8.248;2022-10-16T00:49:03;1.40;;;0.67;;
30147;SDS011;16960;49.404;8.248;2022-10-16T00:51:33;0.77;;;0.40;;
30147;SDS011;16960;49.404;8.248;2022-10-16T00:54:02;0.63;;;0.57;;
30147;SDS011;16960;49.404;8.248;2022-10-16T00:56:32;0.60;;;0.57;;
30147;SDS011;16960;49.404;8.248;2022-10-16T00:58:59;0.63;;;0.57;;
30147;SDS011;16960;49.404;8.248;2022-10-16T01:01:29;0.83;;;0.53;;
30147;SDS011;16960;49.404;8.248;2022-10-16T01:03:56;0.90;;;0.50;;
30147;SDS011;16960;49.404;8.248;2022-10-16T01:06:24;2.03;;;0.73;;
30147;SDS011;16960;49.404;8.248;2022-10-16T01:09:02;0.70;;;0.70;;
30147;SDS011;16960;49.404;8.248;2022-10-16T01:11:41;0.80;;;0.77;;
30147;SDS011;16960;49.404;8.248;2022-10-16T01:14:15;1.13;;;0.77;;
30147;SDS011;16960;49.404;8.248;2022-10-16T01:16:49;0.67;;;0.47;;
30147;SDS011;16960;49.404;8.248;2022-10-16T01:19:25;0.83;;;0.60;;
30147;SDS011;16960;49.404;8.248;2022-10-16T01:22:02;0.60;;;0.40;;
30147;SDS011;16960;49.404;8.248;2022-10-16T01:24:31;0.70;;;0.67;;
30147;SDS011;16960;49.404;8.248;2022-10-16T01:27:10;1.07;;;0.60;;
30147;SDS011;16960;49.404;8.248;2022-10-16T01:29:40;0.60;;;0.40;;
30147;SDS011;16960;49.404;8.248;2022-10-16T01:32:15;0.60;;;0.50;;
30147;SDS011;16960;49.404;8.248;2022-10-16T01:34:47;0.70;;;0.40;;
30147;SDS011;16960;49.404;8.248;2022-10-16T01:37:20;0.87;;;0.70;;
30147;SDS011;16960;49.404;8.248;2022-10-16T01:40:05;0.60;;;0.40;;
30147;SDS011;16960;49.404;8.248;2022-10-16T01:42:38;1.60;;;0.47;;
30147;SDS011;16960;49.404;8.248;2022-10-16T01:45:09;0.80;;;0.60;;
30147;SDS011;16960;49.404;8.248;2022-10-16T01:47:39;1.10;;;0.50;;
30147;SDS011;16960;49.404;8.248;2022-10-16T01:50:09;0.50;;;0.40;;
30147;SDS011;16960;49.404;8.248;2022-10-16T01:52:37;0.63;;;0.47;;
30147;SDS011;16960;49.404;8.248;2022-10-16T01:55:08;1.23;;;0.50;;
30147;SDS011;16960;49.404;8.248;2022-10-16T01:57:41;0.70;;;0.50;;
30147;SDS011;16960;49.404;8.248;2022-10-16T02:00:12;3.60;;;0.70;;
30147;SDS011;16960;49.404;8.248;2022-10-16T02:02:40;1.20;;;0.60;;
30147;SDS011;16960;49.404;8.248;2022-10-16T02:05:10;0.50;;;0.43;;
30147;SDS011;16960;49.404;8.248;2022-10-16T02:07:43;0.53;;;0.50;;
30147;SDS011;16960;49.404;8.248;2022-10-16T02:10:10;1.20;;;1.03;;
30147;SDS011;16960;49.404;8.248;2022-10-16T02:12:38;1.17;;;1.03;;
30147;SDS011;16960;49.404;8.248;2022-10-16T02:15:10;0.87;;;0.57;;
30147;SDS011;16960;49.404;8.248;2022-10-16T02:17:37;0.50;;;0.40;;
30147;SDS011;16960;49.404;8.248;2022-10-16T02:20:04;0.60;;;0.40;;
30147;SDS011;16960;49.404;8.248;2022-10-16T02:22:32;0.60;;;0.50;;
30147;SDS011;16960;49.404;8.248;2022-10-16T02:25:05;0.50;;;0.50;;
30147;SDS011;16960;49.404;8.248;2022-10-16T02:27:35;0.90;;;0.70;;
30147;SDS011;16960;49.404;8.248;2022-10-16T02:30:10;0.50;;;0.40;;
30147;SDS011;16960;49.404;8.248;2022-10-16T02:32:42;3.20;;;0.90;;
30147;SDS011;16960;49.404;8.248;2022-10-16T02:35:12;3.13;;;0.50;;
30147;SDS011;16960;49.404;8.248;2022-10-16T02:37:41;0.40;;;0.40;;
30147;SDS011;16960;49.404;8.248;2022-10-16T02:40:09;1.90;;;0.80;;
30147;SDS011;16960;49.404;8.248;2022-10-16T02:42:38;0.67;;;0.47;;
30147;SDS011;16960;49.404;8.248;2022-10-16T02:45:06;0.83;;;0.50;;
30147;SDS011;16960;49.404;8.248;2022-10-16T02:47:36;0.70;;;0.60;;
30147;SDS011;16960;49.404;8.248;2022-10-16T02:50:03;0.77;;;0.40;;
30147;SDS011;16960;49.404;8.248;2022-10-16T02:52:30;0.77;;;0.67;;
30147;SDS011;16960;49.404;8.248;2022-10-16T02:54:57;1.10;;;0.80;;
30147;SDS011;16960;49.404;8.248;2022-10-16T02:57:24;0.80;;;0.60;;
30147;SDS011;16960;49.404;8.248;2022-10-16T02:59:51;0.70;;;0.60;;
30147;SDS011;16960;49.404;8.248;2022-10-16T03:02:19;0.40;;;0.30;;
30147;SDS011;16960;49.404;8.248;2022-10-16T03:04:46;0.80;;;0.73;;
30147;SDS011;16960;49.404;8.248;2022-10-16T03:07:13;1.80;;;0.47;;
30147;SDS011;16960;49.404;8.248;2022-10-16T03:09:40;0.50;;;0.40;;
30147;SDS011;16960;49.404;8.248;2022-10-16T03:12:07;0.70;;;0.50;;
30147;SDS011;16960;49.404;8.248;2022-10-16T03:14:34;0.50;;;0.50;;
30147;SDS011;16960;49.404;8.248;2022-10-16T03:17:01;0.80;;;0.63;;
30147;SDS011;16960;49.404;8.248;2022-10-16T03:19:29;0.50;;;0.47;;
30147;SDS011;16960;49.404;8.248;2022-10-16T03:21:56;0.70;;;0.50;;
30147;SDS011;16960;49.404;8.248;2022-10-16T03:24:23;0.70;;;0.50;;
30147;SDS011;16960;49.404;8.248;2022-10-16T03:26:50;1.60;;;0.73;;
30147;SDS011;16960;49.404;8.248;2022-10-16T03:29:17;0.40;;;0.40;;
30147;SDS011;16960;49.404;8.248;2022-10-16T03:31:43;0.67;;;0.60;;
30147;SDS011;16960;49.404;8.248;2022-10-16T03:34:10;0.57;;;0.50;;
30147;SDS011;16960;49.404;8.248;2022-10-16T03:36:39;0.93;;;0.50;;
30147;SDS011;16960;49.404;8.248;2022-10-16T03:39:05;1.70;;;0.60;;
30147;SDS011;16960;49.404;8.248;2022-10-16T03:41:32;0.80;;;0.50;;
30147;SDS011;16960;49.404;8.248;2022-10-16T03:43:59;0.97;;;0.60;;
30147;SDS011;16960;49.404;8.248;2022-10-16T03:46:26;0.60;;;0.50;;
30147;SDS011;16960;49.404;8.248;2022-10-16T03:48:53;0.80;;;0.40;;
30147;SDS011;16960;49.404;8.248;2022-10-16T03:51:20;0.43;;;0.40;;
30147;SDS011;16960;49.404;8.248;2022-10-16T03:53:48;0.93;;;0.57;;
30147;SDS011;16960;49.404;8.248;2022-10-16T03:56:15;0.70;;;0.40;;
30147;SDS011;16960;49.404;8.248;2022-10-16T03:58:42;1.37;;;0.73;;
30147;SDS011;16960;49.404;8.248;2022-10-16T04:01:09;0.60;;;0.50;;
30147;SDS011;16960;49.404;8.248;2022-10-16T04:03:36;0.90;;;0.80;;
30147;SDS011;16960;49.404;8.248;2022-10-16T04:06:03;0.50;;;0.50;;
30147;SDS011;16960;49.404;8.248;2022-10-16T04:08:30;0.50;;;0.40;;
30147;SDS011;16960;49.404;8.248;2022-10-16T04:11:01;0.77;;;0.70;;
30147;SDS011;16960;49.404;8.248;2022-10-16T04:13:28;0.57;;;0.50;;
30147;SDS011;16960;49.404;8.248;2022-10-16T04:15:55;0.53;;;0.50;;
30147;SDS011;16960;49.404;8.248;2022-10-16T04:18:21;0.50;;;0.50;;
30147;SDS011;16960;49.404;8.248;2022-10-16T04:20:48;0.60;;;0.50;;
30147;SDS011;16960;49.404;8.248;2022-10-16T04:23:15;0.70;;;0.60;;
30147;SDS011;16960;49.404;8.248;2022-10-16T04:25:42;0.47;;;0.40;;
30147;SDS011;16960;49.404;8.248;2022-10-16T04:28:10;0.60;;;0.57;;
30147;SDS011;16960;49.404;8.248;2022-10-16T04:30:37;0.70;;;0.60;;
30147;SDS011;16960;49.404;8.248;2022-10-16T04:33:05;0.67;;;0.40;;
30147;SDS011;16960;49.404;8.248;2022-10-16T04:35:32;0.60;;;0.50;;
30147;SDS011;16960;49.404;8.248;2022-10-16T04:37:58;0.50;;;0.50;;
30147;SDS011;16960;49.404;8.248;2022-10-16T04:40:25;1.00;;;0.70;;
30147;SDS011;16960;49.404;8.248;2022-10-16T04:42:52;0.50;;;0.47;;
30147;SDS011;16960;49.404;8.248;2022-10-16T04:45:20;0.60;;;0.60;;
30147;SDS011;16960;49.404;8.248;2022-10-16T04:47:47;0.50;;;0.47;;
30147;SDS011;16960;49.404;8.248;2022-10-16T04:50:14;0.73;;;0.60;;
30147;SDS011;16960;49.404;8.248;2022-10-16T04:52:41;0.50;;;0.50;;
30147;SDS011;16960;49.404;8.248;2022-10-16T04:55:08;0.50;;;0.40;;
30147;SDS011;16960;49.404;8.248;2022-10-16T04:57:35;1.33;;;0.40;;
30147;SDS011;16960;49.404;8.248;2022-10-16T05:00:02;0.77;;;0.60;;
30147;SDS011;16960;49.404;8.248;2022-10-16T05:02:31;1.70;;;0.60;;
30147;SDS011;16960;49.404;8.248;2022-10-16T05:04:58;0.70;;;0.60;;
30147;SDS011;16960;49.404;8.248;2022-10-16T05:07:25;0.70;;;0.60;;
30147;SDS011;16960;49.404;8.248;2022-10-16T05:09:51;0.70;;;0.70;;
30147;SDS011;16960;49.404;8.248;2022-10-16T05:12:18;1.60;;;0.80;;
30147;SDS011;16960;49.404;8.248;2022-10-16T05:14:45;0.60;;;0.50;;
30147;SDS011;16960;49.404;8.248;2022-10-16T05:17:12;0.40;;;0.40;;
30147;SDS011;16960;49.404;8.248;2022-10-16T05:19:40;0.87;;;0.73;;
30147;SDS011;16960;49.404;8.248;2022-10-16T05:22:07;0.60;;;0.50;;
30147;SDS011;16960;49.404;8.248;2022-10-16T05:24:34;1.07;;;0.60;;
30147;SDS011;16960;49.404;8.248;2022-10-16T05:27:01;0.30;;;0.30;;
30147;SDS011;16960;49.404;8.248;2022-10-16T05:29:28;0.73;;;0.73;;
30147;SDS011;16960;49.404;8.248;2022-10-16T05:31:55;0.90;;;0.60;;
30147;SDS011;16960;49.404;8.248;2022-10-16T05:34:22;0.70;;;0.57;;
30147;SDS011;16960;49.404;8.248;2022-10-16T05:36:50;1.30;;;0.60;;
30147;SDS011;16960;49.404;8.248;2022-10-16T05:39:17;0.70;;;0.50;;
30147;SDS011;16960;49.404;8.248;2022-10-16T05:41:44;0.63;;;0.60;;
30147;SDS011;16960;49.404;8.248;2022-10-16T05:44:11;0.47;;;0.47;;
30147;SDS011;16960;49.404;8.248;2022-10-16T05:46:38;0.60;;;0.50;;
30147;SDS011;16960;49.404;8.248;2022-10-16T05:49:05;0.77;;;0.70;;
30147;SDS011;16960;49.404;8.248;2022-10-16T05:51:32;0.73;;;0.60;;
30147;SDS011;16960;49.404;8.248;2022-10-16T05:54:00;0.50;;;0.50;;
30147;SDS011;16960;49.404;8.248;2022-10-16T05:56:27;0.50;;;0.50;;
30147;SDS011;16960;49.404;8.248;2022-10-16T05:58:54;0.60;;;0.50;;
30147;SDS011;16960;49.404;8.248;2022-10-16T06:01:21;0.60;;;0.60;;
30147;SDS011;16960;49.404;8.248;2022-10-16T06:03:49;0.70;;;0.40;;
30147;SDS011;16960;49.404;8.248;2022-10-16T06:06:16;0.53;;;0.40;;
30147;SDS011;16960;49.404;8.248;2022-10-16T06:08:44;0.60;;;0.50;;
30147;SDS011;16960;49.404;8.248;2022-10-16T06:11:15;0.50;;;0.40;;
30147;SDS011;16960;49.404;8.248;2022-10-16T06:13:43;0.67;;;0.50;;
30147;SDS011;16960;49.404;8.248;2022-10-16T06:16:11;0.60;;;0.50;;
30147;SDS011;16960;49.404;8.248;2022-10-16T06:18:38;0.50;;;0.50;;
30147;SDS011;16960;49.404;8.248;2022-10-16T06:21:08;0.60;;;0.60;;
30147;SDS011;16960;49.404;8.248;2022-10-16T06:23:36;0.60;;;0.50;;
30147;SDS011;16960;49.404;8.248;2022-10-16T06:26:04;0.50;;;0.50;;
30147;SDS011;16960;49.404;8.248;2022-10-16T06:28:33;0.73;;;0.50;;
30147;SDS011;16960;49.404;8.248;2022-10-16T06:31:00;0.80;;;0.60;;
30147;SDS011;16960;49.404;8.248;2022-10-16T06:33:27;1.20;;;0.80;;
30147;SDS011;16960;49.404;8.248;2022-10-16T06:35:59;0.70;;;0.70;;
30147;SDS011;16960;49.404;8.248;2022-10-16T06:38:27;0.70;;;0.57;;
30147;SDS011;16960;49.404;8.248;2022-10-16T06:40:54;0.83;;;0.70;;
30147;SDS011;16960;49.404;8.248;2022-10-16T06:43:21;0.57;;;0.57;;
30147;SDS011;16960;49.404;8.248;2022-10-16T06:45:51;0.60;;;0.60;;
30147;SDS011;16960;49.404;8.248;2022-10-16T06:48:19;2.43;;;0.70;;
30147;SDS011;16960;49.404;8.248;2022-10-16T06:50:54;6.70;;;0.97;;
30147;SDS011;16960;49.404;8.248;2022-10-16T06:53:22;3.63;;;1.00;;
30147;SDS011;16960;49.404;8.248;2022-10-16T06:55:49;1.57;;;0.90;;
30147;SDS011;16960;49.404;8.248;2022-10-16T06:58:16;1.33;;;1.20;;
30147;SDS011;16960;49.404;8.248;2022-10-16T07:00:43;1.50;;;0.90;;
30147;SDS011;16960;49.404;8.248;2022-10-16T07:03:12;2.50;;;0.90;;
30147;SDS011;16960;49.404;8.248;2022-10-16T07:05:39;2.47;;;0.90;;
30147;SDS011;16960;49.404;8.248;2022-10-16T07:08:07;0.87;;;0.70;;
30147;SDS011;16960;49.404;8.248;2022-10-16T07:10:35;2.03;;;1.10;;
30147;SDS011;16960;49.404;8.248;2022-10-16T07:13:02;2.27;;;0.80;;
30147;SDS011;16960;49.404;8.248;2022-10-16T07:15:29;4.17;;;0.90;;
30147;SDS011;16960;49.404;8.248;2022-10-16T07:17:56;1.03;;;0.87;;
30147;SDS011;16960;49.404;8.248;2022-10-16T07:20:24;2.30;;;1.30;;
30147;SDS011;16960;49.404;8.248;2022-10-16T07:22:51;1.00;;;0.90;;
30147;SDS011;16960;49.404;8.248;2022-10-16T07:25:18;0.80;;;0.70;;
30147;SDS011;16960;49.404;8.248;2022-10-16T07:27:45;2.00;;;1.37;;
30147;SDS011;16960;49.404;8.248;2022-10-16T07:30:12;3.43;;;1.40;;
30147;SDS011;16960;49.404;8.248;2022-10-16T07:32:39;1.70;;;1.30;;
30147;SDS011;16960;49.404;8.248;2022-10-16T07:35:06;1.37;;;1.03;;
30147;SDS011;16960;49.404;8.248;2022-10-16T07:37:35;1.53;;;1.20;;
30147;SDS011;16960;49.404;8.248;2022-10-16T07:40:02;1.97;;;1.10;;
30147;SDS011;16960;49.404;8.248;2022-10-16T07:42:29;4.47;;;1.43;;
30147;SDS011;16960;49.404;8.248;2022-10-16T07:44:56;2.13;;;1.47;;
30147;SDS011;16960;49.404;8.248;2022-10-16T07:47:23;2.17;;;1.33;;
30147;SDS011;16960;49.404;8.248;2022-10-16T07:49:50;1.00;;;0.90;;
30147;SDS011;16960;49.404;8.248;2022-10-16T07:52:17;2.97;;;1.33;;
30147;SDS011;16960;49.404;8.248;2022-10-16T07:54:45;1.70;;;1.33;;
30147;SDS011;16960;49.404;8.248;2022-10-16T07:57:12;1.40;;;1.20;;
30147;SDS011;16960;49.404;8.248;2022-10-16T07:59:44;3.87;;;1.23;;
30147;SDS011;16960;49.404;8.248;2022-10-16T08:02:11;1.80;;;1.20;;
30147;SDS011;16960;49.404;8.248;2022-10-16T08:04:38;3.53;;;1.33;;
30147;SDS011;16960;49.404;8.248;2022-10-16T08:07:06;2.50;;;1.47;;
30147;SDS011;16960;49.404;8.248;2022-10-16T08:09:33;3.20;;;1.90;;
30147;SDS011;16960;49.404;8.248;2022-10-16T08:12:02;3.80;;;1.90;;
30147;SDS011;16960;49.404;8.248;2022-10-16T08:14:29;5.33;;;1.83;;
30147;SDS011;16960;49.404;8.248;2022-10-16T08:16:56;2.53;;;1.23;;
30147;SDS011;16960;49.404;8.248;2022-10-16T08:19:23;2.50;;;1.60;;
30147;SDS011;16960;49.404;8.248;2022-10-16T08:21:49;1.40;;;1.30;;
30147;SDS011;16960;49.404;8.248;2022-10-16T08:24:16;10.13;;;1.83;;
30147;SDS011;16960;49.404;8.248;2022-10-16T08:26:43;2.20;;;1.20;;
30147;SDS011;16960;49.404;8.248;2022-10-16T08:29:12;2.17;;;1.60;;
30147;SDS011;16960;49.404;8.248;2022-10-16T08:31:40;1.60;;;1.50;;
30147;SDS011;16960;49.404;8.248;2022-10-16T08:34:06;2.37;;;1.40;;
30147;SDS011;16960;49.404;8.248;2022-10-16T08:36:33;1.90;;;1.70;;
30147;SDS011;16960;49.404;8.248;2022-10-16T08:39:00;3.57;;;1.70;;
30147;SDS011;16960;49.404;8.248;2022-10-16T08:41:34;4.80;;;1.37;;
30147;SDS011;16960;49.404;8.248;2022-10-16T08:44:33;1.73;;;1.23;;
30147;SDS011;16960;49.404;8.248;2022-10-16T08:47:15;3.23;;;1.63;;
30147;SDS011;16960;49.404;8.248;2022-10-16T08:49:54;2.10;;;1.40;;
30147;SDS011;16960;49.404;8.248;2022-10-16T08:52:24;3.37;;;1.33;;
30147;SDS011;16960;49.404;8.248;2022-10-16T08:54:55;2.67;;;1.53;;
30147;SDS011;16960;49.404;8.248;2022-10-16T08:57:24;1.63;;;1.53;;
30147;SDS011;16960;49.404;8.248;2022-10-16T08:59:53;1.57;;;1.47;;
30147;SDS011;16960;49.404;8.248;2022-10-16T09:02:26;1.63;;;1.43;;
30147;SDS011;16960;49.404;8.248;2022-10-16T09:04:59;1.80;;;1.57;;
30147;SDS011;16960;49.404;8.248;2022-10-16T09:07:39;2.10;;;1.50;;
30147;SDS011;16960;49.404;8.248;2022-10-16T09:10:16;2.30;;;1.50;;
30147;SDS011;16960;49.404;8.248;2022-10-16T09:12:51;2.60;;;1.40;;
30147;SDS011;16960;49.404;8.248;2022-10-16T09:15:24;2.27;;;1.40;;
30147;SDS011;16960;49.404;8.248;2022-10-16T09:17:58;4.00;;;1.33;;
30147;SDS011;16960;49.404;8.248;2022-10-16T09:20:33;3.03;;;1.53;;
30147;SDS011;16960;49.404;8.248;2022-10-16T09:23:16;1.50;;;1.37;;
30147;SDS011;16960;49.404;8.248;2022-10-16T09:25:45;2.73;;;2.20;;
30147;SDS011;16960;49.404;8.248;2022-10-16T09:28:14;1.57;;;1.40;;
30147;SDS011;16960;49.404;8.248;2022-10-16T09:30:43;3.07;;;1.60;;
30147;SDS011;16960;49.404;8.248;2022-10-16T09:33:10;2.73;;;1.90;;
30147;SDS011;16960;49.404;8.248;2022-10-16T09:35:39;4.03;;;2.20;;
30147;SDS011;16960;49.404;8.248;2022-10-16T09:38:08;2.20;;;2.10;;
30147;SDS011;16960;49.404;8.248;2022-10-16T09:40:46;2.23;;;2.00;;
30147;SDS011;16960;49.404;8.248;2022-10-16T09:43:17;2.90;;;1.90;;
30147;SDS011;16960;49.404;8.248;2022-10-16T09:45:56;3.27;;;1.60;;
30147;SDS011;16960;49.404;8.248;2022-10-16T09:48:25;1.90;;;1.70;;
30147;SDS011;16960;49.404;8.248;2022-10-16T09:50:58;1.70;;;1.37;;
30147;SDS011;16960;49.404;8.248;2022-10-16T09:53:27;2.30;;;1.30;;
30147;SDS011;16960;49.404;8.248;2022-10-16T09:56:05;4.60;;;1.80;;
30147;SDS011;16960;49.404;8.248;2022-10-16T09:58:32;2.37;;;1.67;;
30147;SDS011;16960;49.404;8.248;2022-10-16T10:01:01;1.73;;;1.63;;
30147;SDS011;16960;49.404;8.248;2022-10-16T10:03:32;3.23;;;2.00;;
30147;SDS011;16960;49.404;8.248;2022-10-16T10:06:05;2.30;;;1.90;;
30147;SDS011;16960;49.404;8.248;2022-10-16T10:08:52;2.70;;;1.80;;
30147;SDS011;16960;49.404;8.248;2022-10-16T10:14:17;3.67;;;2.03;;
30147;SDS011;16960;49.404;8.248;2022-10-16T10:16:49;2.50;;;1.67;;
30147;SDS011;16960;49.404;8.248;2022-10-16T10:19:17;4.70;;;1.70;;
30147;SDS011;16960;49.404;8.248;2022-10-16T10:21:45;2.37;;;1.80;;
30147;SDS011;16960;49.404;8.248;2022-10-16T10:24:12;5.43;;;2.00;;
30147;SDS011;16960;49.404;8.248;2022-10-16T10:26:41;2.30;;;1.60;;
30147;SDS011;16960;49.404;8.248;2022-10-16T10:29:17;2.10;;;1.60;;
30147;SDS011;16960;49.404;8.248;2022-10-16T10:31:53;1.90;;;1.80;;
30147;SDS011;16960;49.404;8.248;2022-10-16T10:34:35;2.00;;;1.53;;
30147;SDS011;16960;49.404;8.248;2022-10-16T10:37:23;2.00;;;1.90;;
30147;SDS011;16960;49.404;8.248;2022-10-16T10:40:00;2.43;;;1.83;;
30147;SDS011;16960;49.404;8.248;2022-10-16T10:42:34;1.63;;;1.43;;
30147;SDS011;16960;49.404;8.248;2022-10-16T10:45:11;2.00;;;1.40;;
30147;SDS011;16960;49.404;8.248;2022-10-16T10:47:56;2.20;;;1.57;;
30147;SDS011;16960;49.404;8.248;2022-10-16T10:50:30;2.10;;;1.90;;
30147;SDS011;16960;49.404;8.248;2022-10-16T10:53:06;2.13;;;1.60;;
30147;SDS011;16960;49.404;8.248;2022-10-16T10:55:39;2.47;;;1.57;;
30147;SDS011;16960;49.404;8.248;2022-10-16T10:58:15;1.60;;;1.23;;
30147;SDS011;16960;49.404;8.248;2022-10-16T11:00:55;2.17;;;1.87;;
30147;SDS011;16960;49.404;8.248;2022-10-16T11:03:35;2.13;;;1.57;;
30147;SDS011;16960;49.404;8.248;2022-10-16T11:06:22;1.87;;;1.60;;
30147;SDS011;16960;49.404;8.248;2022-10-16T11:08:55;2.90;;;1.67;;
30147;SDS011;16960;49.404;8.248;2022-10-16T11:11:29;1.60;;;1.30;;
30147;SDS011;16960;49.404;8.248;2022-10-16T11:14:02;1.43;;;1.30;;
30147;SDS011;16960;49.404;8.248;2022-10-16T11:16:34;1.17;;;1.07;;
30147;SDS011;16960;49.404;8.248;2022-10-16T11:19:10;2.50;;;1.50;;
30147;SDS011;16960;49.404;8.248;2022-10-16T11:21:43;1.60;;;1.50;;
30147;SDS011;16960;49.404;8.248;2022-10-16T11:24:16;1.47;;;1.37;;
30147;SDS011;16960;49.404;8.248;2022-10-16T11:26:49;2.57;;;1.50;;
30147;SDS011;16960;49.404;8.248;2022-10-16T11:29:19;1.70;;;1.40;;
30147;SDS011;16960;49.404;8.248;2022-10-16T11:31:50;2.50;;;1.47;;
30147;SDS011;16960;49.404;8.248;2022-10-16T11:34:24;3.43;;;1.33;;
30147;SDS011;16960;49.404;8.248;2022-10-16T11:36:56;2.63;;;1.67;;
30147;SDS011;16960;49.404;8.248;2022-10-16T11:39:30;1.70;;;1.60;;
30147;SDS011;16960;49.404;8.248;2022-10-16T11:41:59;1.60;;;1.40;;
30147;SDS011;16960;49.404;8.248;2022-10-16T11:44:36;2.07;;;1.40;;
30147;SDS011;16960;49.404;8.248;2022-10-16T11:47:23;1.43;;;1.33;;
30147;SDS011;16960;49.404;8.248;2022-10-16T11:49:57;2.70;;;1.30;;
30147;SDS011;16960;49.404;8.248;2022-10-16T11:52:28;1.93;;;1.63;;
30147;SDS011;16960;49.404;8.248;2022-10-16T11:55:04;1.33;;;1.23;;
30147;SDS011;16960;49.404;8.248;2022-10-16T11:57:41;5.57;;;1.60;;
30147;SDS011;16960;49.404;8.248;2022-10-16T12:00:15;2.03;;;1.63;;
30147;SDS011;16960;49.404;8.248;2022-10-16T12:02:50;2.50;;;1.50;;
30147;SDS011;16960;49.404;8.248;2022-10-16T12:05:26;1.60;;;1.47;;
30147;SDS011;16960;49.404;8.248;2022-10-16T12:08:03;1.50;;;1.40;;
30147;SDS011;16960;49.404;8.248;2022-10-16T12:10:36;2.30;;;1.90;;
30147;SDS011;16960;49.404;8.248;2022-10-16T12:13:05;1.53;;;1.43;;
30147;SDS011;16960;49.404;8.248;2022-10-16T12:16:05;1.63;;;1.53;;
30147;SDS011;16960;49.404;8.248;2022-10-16T12:18:33;2.33;;;1.77;;
30147;SDS011;16960;49.404;8.248;2022-10-16T12:21:01;2.43;;;1.70;;
30147;SDS011;16960;49.404;8.248;2022-10-16T12:23:31;2.30;;;1.60;;
30147;SDS011;16960;49.404;8.248;2022-10-16T12:26:02;1.93;;;1.40;;
30147;SDS011;16960;49.404;8.248;2022-10-16T12:28:31;1.70;;;1.60;;
30147;SDS011;16960;49.404;8.248;2022-10-16T12:31:01;2.07;;;1.87;;
30147;SDS011;16960;49.404;8.248;2022-10-16T12:33:30;2.93;;;1.90;;
30147;SDS011;16960;49.404;8.248;2022-10-16T12:36:02;2.77;;;1.40;;
30147;SDS011;16960;49.404;8.248;2022-10-16T12:38:38;7.20;;;1.83;;
30147;SDS011;16960;49.404;8.248;2022-10-16T12:41:23;2.17;;;1.50;;
30147;SDS011;16960;49.404;8.248;2022-10-16T12:43:51;2.13;;;1.50;;
30147;SDS011;16960;49.404;8.248;2022-10-16T12:46:35;3.13;;;1.80;;
30147;SDS011;16960;49.404;8.248;2022-10-16T12:49:05;2.93;;;1.60;;
30147;SDS011;16960;49.404;8.248;2022-10-16T12:51:48;4.50;;;1.70;;
30147;SDS011;16960;49.404;8.248;2022-10-16T12:54:16;2.20;;;1.83;;
30147;SDS011;16960;49.404;8.248;2022-10-16T12:56:47;1.47;;;1.37;;
30147;SDS011;16960;49.404;8.248;2022-10-16T12:59:23;1.97;;;1.83;;
30147;SDS011;16960;49.404;8.248;2022-10-16T13:05:03;3.00;;;1.70;;
30147;SDS011;16960;49.404;8.248;2022-10-16T13:07:47;2.30;;;2.00;;
30147;SDS011;16960;49.404;8.248;2022-10-16T13:10:23;1.77;;;1.40;;
30147;SDS011;16960;49.404;8.248;2022-10-16T13:13:05;2.40;;;2.20;;
30147;SDS011;16960;49.404;8.248;2022-10-16T13:15:58;5.13;;;2.10;;
30147;SDS011;16960;49.404;8.248;2022-10-16T13:18:33;3.27;;;2.37;;
30147;SDS011;16960;49.404;8.248;2022-10-16T13:24:01;2.33;;;1.77;;
30147;SDS011;16960;49.404;8.248;2022-10-16T13:26:39;2.60;;;2.17;;
30147;SDS011;16960;49.404;8.248;2022-10-16T13:29:12;2.80;;;1.73;;
30147;SDS011;16960;49.404;8.248;2022-10-16T13:31:39;1.80;;;1.43;;
30147;SDS011;16960;49.404;8.248;2022-10-16T13:34:10;1.80;;;1.70;;
30147;SDS011;16960;49.404;8.248;2022-10-16T13:36:43;2.83;;;1.70;;
30147;SDS011;16960;49.404;8.248;2022-10-16T13:39:13;1.70;;;1.60;;
30147;SDS011;16960;49.404;8.248;2022-10-16T13:41:42;2.10;;;2.00;;
30147;SDS011;16960;49.404;8.248;2022-10-16T13:44:13;2.03;;;1.70;;
30147;SDS011;16960;49.404;8.248;2022-10-16T13:46:44;2.00;;;1.60;;
30147;SDS011;16960;49.404;8.248;2022-10-16T13:49:12;3.10;;;1.90;;
30147;SDS011;16960;49.404;8.248;2022-10-16T13:51:41;1.70;;;1.60;;
30147;SDS011;16960;49.404;8.248;2022-10-16T13:54:21;2.23;;;1.77;;
30147;SDS011;16960;49.404;8.248;2022-10-16T13:56:49;3.40;;;2.23;;
30147;SDS011;16960;49.404;8.248;2022-10-16T13:59:22;6.43;;;2.13;;
30147;SDS011;16960;49.404;8.248;2022-10-16T14:01:51;2.93;;;2.23;;
30147;SDS011;16960;49.404;8.248;2022-10-16T14:04:22;4.80;;;2.37;;
30147;SDS011;16960;49.404;8.248;2022-10-16T14:06:50;2.80;;;1.80;;
30147;SDS011;16960;49.404;8.248;2022-10-16T14:09:21;2.50;;;2.30;;
30147;SDS011;16960;49.404;8.248;2022-10-16T14:11:52;3.70;;;2.33;;
30147;SDS011;16960;49.404;8.248;2022-10-16T14:14:21;2.40;;;1.83;;
30147;SDS011;16960;49.404;8.248;2022-10-16T14:16:49;2.80;;;1.90;;
30147;SDS011;16960;49.404;8.248;2022-10-16T14:19:18;2.57;;;2.17;;
30147;SDS011;16960;49.404;8.248;2022-10-16T14:21:48;2.43;;;2.23;;
30147;SDS011;16960;49.404;8.248;2022-10-16T14:24:24;3.97;;;2.00;;
30147;SDS011;16960;49.404;8.248;2022-10-16T14:26:53;4.03;;;2.10;;
30147;SDS011;16960;49.404;8.248;2022-10-16T14:29:21;2.27;;;1.80;;
30147;SDS011;16960;49.404;8.248;2022-10-16T14:31:54;2.37;;;2.17;;
30147;SDS011;16960;49.404;8.248;2022-10-16T14:34:22;2.27;;;2.07;;
30147;SDS011;16960;49.404;8.248;2022-10-16T14:36:52;3.40;;;2.13;;
30147;SDS011;16960;49.404;8.248;2022-10-16T14:39:20;5.50;;;2.10;;
30147;SDS011;16960;49.404;8.248;2022-10-16T14:41:50;2.03;;;1.90;;
30147;SDS011;16960;49.404;8.248;2022-10-16T14:44:18;3.20;;;2.20;;
30147;SDS011;16960;49.404;8.248;2022-10-16T14:46:47;3.10;;;2.37;;
30147;SDS011;16960;49.404;8.248;2022-10-16T14:49:15;3.93;;;2.60;;
30147;SDS011;16960;49.404;8.248;2022-10-16T14:51:44;4.50;;;3.00;;
30147;SDS011;16960;49.404;8.248;2022-10-16T14:54:12;3.37;;;2.77;;
30147;SDS011;16960;49.404;8.248;2022-10-16T14:56:45;3.10;;;2.17;;
30147;SDS011;16960;49.404;8.248;2022-10-16T14:59:16;2.67;;;2.47;;
30147;SDS011;16960;49.404;8.248;2022-10-16T15:01:48;3.10;;;2.70;;
30147;SDS011;16960;49.404;8.248;2022-10-16T15:04:14;4.83;;;2.10;;
30147;SDS011;16960;49.404;8.248;2022-10-16T15:06:42;5.13;;;2.77;;
30147;SDS011;16960;49.404;8.248;2022-10-16T15:09:09;5.33;;;2.40;;
30147;SDS011;16960;49.404;8.248;2022-10-16T15:11:36;3.90;;;2.40;;
30147;SDS011;16960;49.404;8.248;2022-10-16T15:14:03;4.73;;;2.60;;
30147;SDS011;16960;49.404;8.248;2022-10-16T15:16:32;3.90;;;2.50;;